Time;durP1;ratioP1;P1;durP2;ratioP2;P2;SDS_P1;SDS_P2;PMS_P1;PMS_P2;Temp;Humidity;BMP_temperature;BMP_pressure;BME280_temperature;BME280_humidity;BME280_pressure;Samples;Min_cycle;Max_cycle;Signal;HPM_P1;HPM_P2
2023/03/23 00:01:21;;;;;;;57.00;38.40;;;;;;;9.03;89.33;99777.36;105469;1260;75832;-68
2023/03/23 00:03:50;;;;;;;45.60;34.20;;;;;;;9.03;89.32;99778.76;105457;1257;69136;-68
2023/03/23 00:06:18;;;;;;;52.40;37.10;;;;;;;9.04;89.54;99776.89;105715;1259;71932;-68
2023/03/23 00:08:52;;;;;;;46.80;35.90;;;;;;;9.01;89.49;99772.50;105407;1257;60370;-77
2023/03/23 00:11:21;;;;;;;46.50;36.10;;;;;;;8.96;89.52;99772.23;105684;1257;61785;-75
2023/03/23 00:13:52;;;;;;;49.40;37.30;;;;;;;8.91;89.84;99775.66;106104;1259;74230;-70
2023/03/23 00:16:30;;;;;;;56.00;38.50;;;;;;;8.89;90.03;99773.90;105857;1257;67713;-71
2023/03/23 00:18:59;;;;;;;50.20;38.00;;;;;;;8.87;90.13;99770.06;105870;1258;72927;-70
2023/03/23 00:21:33;;;;;;;54.60;40.80;;;;;;;8.87;90.38;99769.05;105817;1259;61620;-71
2023/03/23 00:24:00;;;;;;;51.90;39.80;;;;;;;8.89;90.24;99771.27;105713;1257;61126;-71
2023/03/23 00:26:29;;;;;;;49.50;38.10;;;;;;;8.91;90.07;99766.71;105697;1259;73226;-70
2023/03/23 00:29:00;;;;;;;56.30;41.70;;;;;;;8.97;90.14;99765.15;105675;1257;68028;-70
2023/03/23 00:31:34;;;;;;;59.40;41.70;;;;;;;9.02;89.81;99759.56;105840;1257;72926;-73
2023/03/23 00:34:04;;;;;;;57.00;41.40;;;;;;;9.03;89.75;99765.27;105857;1257;60584;-70
2023/03/23 00:36:34;;;;;;;53.60;36.50;;;;;;;9.02;89.56;99762.74;105205;1257;62385;-71
2023/03/23 00:39:03;;;;;;;50.40;38.80;;;;;;;8.97;89.81;99759.21;105825;1259;75643;-71
2023/03/23 00:41:32;;;;;;;49.90;35.70;;;;;;;8.91;89.82;99756.08;105764;1257;68157;-70
2023/03/23 00:44:01;;;;;;;52.70;37.90;;;;;;;8.80;90.59;99753.28;105729;1257;73683;-72
2023/03/23 00:46:44;;;;;;;59.00;39.30;;;;;;;8.70;91.34;99750.23;105625;1256;62971;-70
2023/03/23 00:49:13;;;;;;;48.70;37.80;;;;;;;8.66;91.62;99750.73;105547;1257;60485;-72
2023/03/23 00:51:41;;;;;;;53.80;38.30;;;;;;;8.64;92.11;99744.84;105774;1255;74559;-71
2023/03/23 00:54:08;;;;;;;49.40;37.40;;;;;;;8.62;92.65;99739.83;105935;1257;69010;-70
2023/03/23 00:56:36;;;;;;;52.30;37.90;;;;;;;8.63;92.58;99733.35;105956;1254;73177;-76
2023/03/23 00:59:03;;;;;;;49.50;37.90;;;;;;;8.68;92.45;99727.13;105819;1256;63769;-75
2023/03/23 01:01:31;;;;;;;40.10;34.10;;;;;;;8.72;92.03;99727.48;105697;1257;60472;-73
2023/03/23 01:04:03;;;;;;;47.10;34.90;;;;;;;8.76;91.98;99723.05;105705;1262;73625;-73
2023/03/23 01:06:32;;;;;;;52.20;38.40;;;;;;;8.79;91.73;99723.60;105715;1257;67609;-74
2023/03/23 01:09:02;;;;;;;46.90;35.60;;;;;;;8.82;91.57;99725.70;105779;1257;72535;-71
2023/03/23 01:11:29;;;;;;;42.40;33.90;;;;;;;8.80;91.16;99727.96;105808;1257;60565;-72
2023/03/23 01:13:56;;;;;;;51.10;39.20;;;;;;;8.71;91.03;99726.60;105367;1257;60428;-72
2023/03/23 01:16:23;;;;;;;46.70;35.00;;;;;;;8.58;91.54;99725.50;105382;1259;74908;-71
2023/03/23 01:18:51;;;;;;;48.10;34.70;;;;;;;8.48;92.03;99719.88;105857;1259;68098;-72
2023/03/23 01:21:21;;;;;;;45.60;34.00;;;;;;;8.44;92.29;99715.62;105819;1259;73088;-72
2023/03/23 01:23:48;;;;;;;37.90;32.00;;;;;;;8.46;92.33;99711.74;105769;1259;61158;-72
2023/03/23 01:26:22;;;;;;;43.90;34.10;;;;;;;8.49;92.47;99711.33;105788;1255;60587;-71
2023/03/23 01:28:49;;;;;;;41.40;31.10;;;;;;;8.52;92.31;99707.39;105769;1256;72661;-72
2023/03/23 01:31:18;;;;;;;44.70;34.80;;;;;;;8.53;92.24;99709.77;105801;1261;68173;-74
2023/03/23 01:33:46;;;;;;;48.50;33.80;;;;;;;8.48;92.33;99709.33;105776;1257;73384;-73
2023/03/23 01:36:15;;;;;;;43.00;31.90;;;;;;;8.44;92.47;99704.84;105837;1261;61049;-72
2023/03/23 01:38:44;;;;;;;42.90;31.80;;;;;;;8.41;92.75;99707.30;105876;1262;60504;-71
2023/03/23 01:41:12;;;;;;;38.70;31.20;;;;;;;8.39;92.95;99710.16;105754;1254;72375;-70
2023/03/23 01:44:15;;;;;;;53.40;32.90;;;;;;;8.33;93.33;99714.63;105921;1256;67409;-72
2023/03/23 01:47:08;;;;;;;48.40;33.10;;;;;;;8.25;93.90;99710.14;105904;1260;73456;-72
2023/03/23 01:49:46;;;;;;;47.40;34.10;;;;;;;8.24;93.86;99713.66;105710;1257;62177;-73
2023/03/23 01:52:16;;;;;;;38.70;31.70;;;;;;;8.26;93.97;99719.38;105919;1257;61168;-71
2023/03/23 01:54:46;;;;;;;42.60;32.40;;;;;;;8.29;93.85;99718.56;105737;1262;74898;-74
2023/03/23 01:57:16;;;;;;;42.00;31.40;;;;;;;8.36;93.72;99719.63;105768;1257;67970;-74
2023/03/23 01:59:47;;;;;;;41.80;32.90;;;;;;;8.44;93.56;99719.26;105649;1257;73955;-73
2023/03/23 02:02:23;;;;;;;41.00;30.10;;;;;;;8.52;93.06;99718.36;105750;1257;60578;-72
2023/03/23 02:04:51;;;;;;;44.00;31.40;;;;;;;8.56;92.58;99720.05;105632;1257;60376;-72
2023/03/23 02:07:20;;;;;;;43.30;31.20;;;;;;;8.59;92.42;99714.59;105731;1255;73911;-72
2023/03/23 02:09:49;;;;;;;40.50;31.30;;;;;;;8.59;92.07;99713.48;105819;1255;68596;-73
2023/03/23 02:12:16;;;;;;;37.70;32.50;;;;;;;8.52;91.79;99715.47;105640;1259;72236;-74
2023/03/23 02:14:43;;;;;;;37.60;29.70;;;;;;;8.47;91.65;99718.38;105737;1256;61322;-72
2023/03/23 02:17:33;;;;;;;39.30;29.10;;;;;;;8.47;91.84;99718.75;105826;1256;62206;-69
2023/03/23 02:20:10;;;;;;;37.20;29.70;;;;;;;8.51;91.71;99724.02;105814;1256;74122;-69
2023/03/23 02:23:00;;;;;;;41.40;28.20;;;;;;;8.56;91.57;99717.48;105649;1260;68780;-71
2023/03/23 02:25:49;;;;;;;42.70;30.30;;;;;;;8.62;91.58;99711.67;105693;1257;72186;-71
2023/03/23 02:28:57;;;;;;;39.90;31.40;;;;;;;8.67;91.07;99713.44;105760;1257;61798;-75
2023/03/23 02:31:46;;;;;;;36.60;29.90;;;;;;;8.70;90.91;99716.14;105452;1257;61530;-71
2023/03/23 02:34:27;;;;;;;37.70;29.50;;;;;;;8.71;90.50;99716.58;105729;1255;72797;-77
2023/03/23 02:37:02;;;;;;;40.80;29.60;;;;;;;8.67;90.32;99716.75;105733;1263;67222;-78
2023/03/23 02:39:30;;;;;;;38.90;29.40;;;;;;;8.62;90.49;99718.16;105845;1257;73506;-77
2023/03/23 02:42:02;;;;;;;36.40;30.30;;;;;;;8.60;90.31;99720.51;105701;1257;62088;-75
2023/03/23 02:44:32;;;;;;;33.30;26.70;;;;;;;8.62;90.48;99720.19;105768;1256;60461;-74
2023/03/23 02:47:11;;;;;;;33.60;26.40;;;;;;;8.68;90.65;99718.55;105675;1257;74469;-75
2023/03/23 02:49:40;;;;;;;43.80;32.60;;;;;;;8.68;90.18;99715.23;105833;1257;69861;-73
2023/03/23 02:52:12;;;;;;;37.50;30.00;;;;;;;8.66;90.02;99711.32;105749;1261;74728;-75
2023/03/23 02:54:44;;;;;;;36.20;29.40;;;;;;;8.62;90.08;99711.98;105731;1257;63125;-73
2023/03/23 02:57:11;;;;;;;40.20;31.70;;;;;;;8.58;90.44;99707.61;105353;1262;60459;-73
2023/03/23 02:59:41;;;;;;;39.30;29.40;;;;;;;8.55;90.55;99708.30;105737;1261;74371;-75
2023/03/23 03:02:23;;;;;;;43.80;33.00;;;;;;;8.53;90.90;99709.92;105662;1254;67905;-73
2023/03/23 03:05:00;;;;;;;42.10;31.90;;;;;;;8.52;90.81;99711.56;105772;1257;73153;-75
2023/03/23 03:07:35;;;;;;;40.50;31.30;;;;;;;8.50;90.99;99714.72;105856;1257;62902;-74
2023/03/23 03:10:06;;;;;;;37.40;31.10;;;;;;;8.47;91.10;99716.27;105373;1255;59875;-74
2023/03/23 03:12:57;;;;;;;41.90;32.60;;;;;;;8.47;91.24;99714.50;105689;1259;74216;-78
2023/03/23 03:15:37;;;;;;;41.40;32.10;;;;;;;8.49;91.36;99712.84;105781;1257;69767;-81
2023/03/23 03:18:16;;;;;;;40.80;31.20;;;;;;;8.52;91.07;99717.62;105760;1257;73499;-75
2023/03/23 03:20:47;;;;;;;43.50;30.40;;;;;;;8.54;91.00;99722.05;105669;1257;62246;-71
2023/03/23 03:23:15;;;;;;;32.10;27.20;;;;;;;8.56;90.95;99721.34;105850;1256;60687;-78
2023/03/23 03:25:48;;;;;;;39.10;30.10;;;;;;;8.54;90.59;99721.94;105555;1256;75324;-75
2023/03/23 03:28:22;;;;;;;43.90;31.60;;;;;;;8.53;90.72;99719.04;105722;1254;68827;-72
2023/03/23 03:30:56;;;;;;;37.40;28.40;;;;;;;8.52;90.65;99720.30;105901;1262;73473;-70
2023/03/23 03:33:26;;;;;;;38.60;30.50;;;;;;;8.52;91.02;99715.77;105824;1257;61630;-72
2023/03/23 03:35:54;;;;;;;36.60;27.20;;;;;;;8.53;90.75;99710.73;105773;1257;62168;-72
2023/03/23 03:38:26;;;;;;;42.50;35.20;;;;;;;8.56;90.69;99710.57;105761;1262;74263;-71
2023/03/23 03:40:54;;;;;;;35.80;30.50;;;;;;;8.55;90.57;99709.96;105906;1259;68865;-71
2023/03/23 03:43:21;;;;;;;36.40;30.50;;;;;;;8.54;90.70;99705.65;105717;1257;72661;-72
2023/03/23 03:45:49;;;;;;;37.60;29.60;;;;;;;8.53;90.49;99704.18;105649;1257;61938;-74
2023/03/23 03:48:17;;;;;;;40.30;31.70;;;;;;;8.54;90.54;99700.67;106679;1259;60588;-71
2023/03/23 03:50:51;;;;;;;37.70;27.30;;;;;;;8.56;90.36;99698.31;105833;1262;74030;-72
2023/03/23 03:53:20;;;;;;;41.10;31.50;;;;;;;8.53;90.44;99694.16;105864;1257;68485;-71
2023/03/23 03:55:48;;;;;;;32.90;28.60;;;;;;;8.52;90.57;99697.25;105710;1257;72400;-71
2023/03/23 03:58:16;;;;;;;40.90;31.20;;;;;;;8.53;90.38;99707.13;105852;1260;60417;-73
2023/03/23 04:01:00;;;;;;;42.40;34.00;;;;;;;8.47;90.54;99701.58;105895;1259;60542;-73
2023/03/23 04:03:33;;;;;;;39.70;31.70;;;;;;;8.41;90.81;99701.08;105444;1266;75364;-72
2023/03/23 04:06:05;;;;;;;46.50;33.60;;;;;;;8.38;90.91;99702.30;105701;1264;67944;-73
2023/03/23 04:08:35;;;;;;;39.20;30.50;;;;;;;8.38;91.20;99704.94;105490;1257;74490;-74
2023/03/23 04:11:04;;;;;;;36.70;30.00;;;;;;;8.38;91.33;99708.58;105818;1263;63632;-73
2023/03/23 04:13:32;;;;;;;38.70;31.10;;;;;;;8.36;91.57;99710.45;105847;1257;61905;-72
2023/03/23 04:16:11;;;;;;;40.20;32.20;;;;;;;8.35;91.83;99708.50;105711;1262;74751;-75
2023/03/23 04:18:38;;;;;;;41.80;33.80;;;;;;;8.38;91.77;99707.88;105761;1257;69955;-73
2023/03/23 04:21:07;;;;;;;41.80;35.10;;;;;;;8.42;91.65;99709.31;105753;1262;72161;-72
2023/03/23 04:23:39;;;;;;;42.30;33.20;;;;;;;8.47;91.57;99710.42;105513;1258;62240;-75
2023/03/23 04:26:08;;;;;;;42.30;33.60;;;;;;;8.49;91.34;99715.03;105706;1262;61537;-74
2023/03/23 04:28:40;;;;;;;40.80;32.40;;;;;;;8.47;91.36;99716.88;105620;1263;74649;-73
2023/03/23 04:31:28;;;;;;;40.60;32.20;;;;;;;8.43;91.36;99716.14;105692;1254;69471;-72
2023/03/23 04:34:06;;;;;;;44.20;33.40;;;;;;;8.40;91.42;99712.73;105618;1257;74344;-75
2023/03/23 04:36:41;;;;;;;40.70;33.70;;;;;;;8.38;91.82;99709.77;105448;1257;63847;-74
2023/03/23 04:39:15;;;;;;;46.40;34.60;;;;;;;8.39;91.89;99709.84;105809;1259;60527;-74
2023/03/23 04:41:47;;;;;;;40.80;31.80;;;;;;;8.42;91.76;99712.62;105737;1257;75114;-74
2023/03/23 04:44:39;;;;;;;39.90;33.30;;;;;;;8.42;91.53;99713.15;105478;1267;69796;-74
2023/03/23 04:47:12;;;;;;;40.70;31.90;;;;;;;8.38;91.71;99708.70;105753;1261;72992;-74
2023/03/23 04:49:45;;;;;;;43.10;34.30;;;;;;;8.36;91.78;99705.64;105433;1260;62935;-74
2023/03/23 04:52:33;;;;;;;39.40;30.90;;;;;;;8.35;92.04;99705.27;105765;1255;61508;-76
2023/03/23 04:55:09;;;;;;;41.80;33.10;;;;;;;8.34;92.07;99706.45;105649;1259;75690;-73
2023/03/23 04:57:37;;;;;;;40.80;33.40;;;;;;;8.34;92.29;99710.90;105605;1260;69123;-71
2023/03/23 05:00:37;;;;;;;45.50;35.00;;;;;;;8.32;92.31;99711.11;105453;1256;72990;-74
2023/03/23 05:03:07;;;;;;;41.10;33.60;;;;;;;8.31;92.41;99707.57;105604;1261;62915;-75
2023/03/23 05:05:34;;;;;;;39.80;33.00;;;;;;;8.34;92.47;99704.84;105696;1254;60693;-75
2023/03/23 05:08:06;;;;;;;47.20;38.10;;;;;;;8.35;92.60;99708.07;105818;1260;75363;-73
2023/03/23 05:10:37;;;;;;;51.60;37.50;;;;;;;8.39;92.65;99708.59;105785;1257;67807;-74
2023/03/23 05:13:14;;;;;;;49.40;36.70;;;;;;;8.42;92.61;99709.56;105582;1256;74498;-76
2023/03/23 05:15:43;;;;;;;44.70;37.30;;;;;;;8.43;92.73;99706.02;105818;1259;60956;-74
2023/03/23 05:18:11;;;;;;;49.40;37.40;;;;;;;8.43;92.57;99707.08;105781;1259;60364;-74
2023/03/23 05:20:46;;;;;;;44.00;33.50;;;;;;;8.45;92.73;99708.84;105794;1254;73281;-73
2023/03/23 05:23:20;;;;;;;42.70;34.90;;;;;;;8.48;92.61;99711.91;105613;1261;69034;-76
2023/03/23 05:25:55;;;;;;;47.00;35.80;;;;;;;8.52;92.68;99711.23;105617;1262;71754;-76
2023/03/23 05:28:23;;;;;;;44.30;34.20;;;;;;;8.54;92.44;99711.12;105730;1257;63502;-75
2023/03/23 05:30:57;;;;;;;48.90;32.70;;;;;;;8.59;92.38;99713.15;105696;1262;60563;-76
2023/03/23 05:33:36;;;;;;;45.40;33.20;;;;;;;8.61;92.32;99713.48;105498;1261;75306;-78
2023/03/23 05:36:34;;;;;;;48.70;36.40;;;;;;;8.67;92.20;99717.09;105738;1259;67838;-75
2023/03/23 05:39:25;;;;;;;51.30;37.40;;;;;;;8.69;91.97;99719.09;105644;1260;73817;-75
2023/03/23 05:42:13;;;;;;;48.00;36.30;;;;;;;8.69;91.77;99715.98;105565;1254;61573;-77
2023/03/23 05:44:55;;;;;;;47.50;36.20;;;;;;;8.70;91.91;99717.25;105653;1266;60624;-74
2023/03/23 05:47:23;;;;;;;45.90;36.20;;;;;;;8.69;91.80;99718.18;105802;1260;75814;-72
2023/03/23 05:49:56;;;;;;;49.30;37.70;;;;;;;8.67;92.11;99721.86;105530;1263;69576;-74
2023/03/23 05:52:27;;;;;;;46.10;38.40;;;;;;;8.69;92.11;99720.50;105837;1256;74464;-75
2023/03/23 05:54:54;;;;;;;46.10;38.40;;;;;;;8.72;92.29;99723.77;105580;1260;62208;-78
2023/03/23 05:57:22;;;;;;;45.50;38.30;;;;;;;8.76;92.22;99724.23;105558;1261;60334;-76
2023/03/23 06:00:05;;;;;;;48.90;40.20;;;;;;;8.82;92.37;99723.66;105463;1267;75145;-75
2023/03/23 06:02:43;;;;;;;45.50;37.20;;;;;;;8.83;92.21;99725.28;105559;1257;69799;-74
2023/03/23 06:05:15;;;;;;;;;;;;;;;8.86;92.40;99729.23;105660;1261;74558;-70
2023/03/23 06:07:43;;;;;;;50.80;38.30;;;;;;;8.91;92.21;99727.61;105787;1255;62860;-72
2023/03/23 06:10:14;;;;;;;48.20;37.60;;;;;;;8.96;92.22;99732.05;105749;1262;60555;-74
2023/03/23 06:12:46;;;;;;;48.60;37.10;;;;;;;8.99;91.97;99731.55;105738;1260;75727;-72
2023/03/23 06:15:36;;;;;;;46.60;35.20;;;;;;;9.03;92.08;99730.94;105472;1263;68366;-75
2023/03/23 06:18:13;;;;;;;51.00;34.60;;;;;;;9.09;91.89;99731.42;105652;1260;74327;-77
2023/03/23 06:20:48;;;;;;;45.60;35.00;;;;;;;9.15;91.74;99732.79;105538;1255;63987;-72
2023/03/23 06:23:41;;;;;;;43.40;34.00;;;;;;;9.20;91.54;99736.27;105420;1262;61161;-75
2023/03/23 06:26:14;;;;;;;50.80;37.10;;;;;;;9.24;91.43;99738.91;105558;1257;75468;-73
2023/03/23 06:28:44;;;;;;;47.10;36.10;;;;;;;9.33;91.52;99739.73;105733;1260;69772;-72
2023/03/23 06:31:11;;;;;;;51.50;38.50;;;;;;;9.42;91.00;99738.61;105579;1263;72113;-74
2023/03/23 06:33:40;;;;;;;44.80;37.80;;;;;;;9.50;90.60;99741.59;105755;1259;60440;-73
2023/03/23 06:36:29;;;;;;;46.70;32.90;;;;;;;9.59;90.51;99741.87;105696;1260;60940;-74
2023/03/23 06:39:19;;;;;;;41.40;34.60;;;;;;;9.71;90.19;99745.35;105586;1260;74948;-70
2023/03/23 06:42:10;;;;;;;44.20;32.70;;;;;;;9.81;89.15;99747.45;105499;1260;69910;-75
2023/03/23 06:44:39;;;;;;;50.40;38.00;;;;;;;9.89;88.87;99745.70;105526;1258;72356;-72
2023/03/23 06:47:07;;;;;;;43.80;35.50;;;;;;;10.01;88.27;99744.98;105601;1258;60491;-72
2023/03/23 06:49:37;;;;;;;43.20;35.50;;;;;;;10.10;87.64;99743.58;105595;1260;60521;-73
2023/03/23 06:52:26;;;;;;;46.00;35.40;;;;;;;10.21;87.04;99740.42;105771;1269;75621;-69
2023/03/23 06:54:54;;;;;;;54.60;38.00;;;;;;;10.31;86.51;99740.73;105607;1254;69076;-72
2023/03/23 06:57:22;;;;;;;46.00;35.40;;;;;;;10.37;85.73;99740.34;105821;1258;74226;-72
2023/03/23 06:59:51;;;;;;;49.70;36.30;;;;;;;10.42;85.32;99737.56;105776;1260;62642;-72
2023/03/23 07:02:18;;;;;;;40.10;33.00;;;;;;;10.46;84.94;99736.28;105701;1260;61909;-73
2023/03/23 07:04:49;;;;;;;44.00;35.40;;;;;;;10.56;84.70;99736.35;105878;1260;74225;-70
2023/03/23 07:07:21;;;;;;;42.30;34.70;;;;;;;10.68;84.51;99732.54;105866;1261;68800;-71
2023/03/23 07:10:20;;;;;;;36.50;29.60;;;;;;;10.86;83.82;99734.61;105286;1260;71165;-70
2023/03/23 07:12:47;;;;;;;36.30;29.20;;;;;;;10.98;83.00;99731.73;105742;1260;60540;-73
2023/03/23 07:15:15;;;;;;;42.30;31.50;;;;;;;11.10;82.02;99733.55;105775;1255;60479;-73
2023/03/23 07:17:45;;;;;;;41.50;29.90;;;;;;;11.21;81.03;99732.52;105609;1270;75437;-72
2023/03/23 07:20:24;;;;;;;34.00;27.00;;;;;;;11.29;79.58;99729.88;105698;1256;68167;-73
2023/03/23 07:22:51;;;;;;;34.10;28.20;;;;;;;11.35;78.95;99732.69;105639;1254;72398;-73
2023/03/23 07:25:37;;;;;;;33.20;26.20;;;;;;;11.47;78.74;99733.02;105584;1260;63521;-72
2023/03/23 07:28:04;;;;;;;38.10;29.80;;;;;;;11.59;78.03;99736.38;105847;1256;60946;-73
2023/03/23 07:30:39;;;;;;;41.20;30.30;;;;;;;11.69;77.37;99737.39;105812;1260;74794;-75
2023/03/23 07:33:09;;;;;;;31.50;27.70;;;;;;;11.77;76.73;99737.20;105836;1255;69233;-71
2023/03/23 07:35:36;;;;;;;35.10;25.70;;;;;;;11.88;76.04;99737.02;105804;1260;73039;-71
2023/03/23 07:38:07;;;;;;;32.60;27.40;;;;;;;11.96;75.16;99740.06;105771;1263;60402;-70
2023/03/23 07:40:35;;;;;;;32.10;26.00;;;;;;;12.04;74.43;99739.27;105748;1257;61138;-70
2023/03/23 07:43:08;;;;;;;29.60;24.40;;;;;;;12.10;73.54;99735.00;105816;1260;74700;-67
2023/03/23 07:45:53;;;;;;;29.90;25.80;;;;;;;12.17;73.38;99731.96;105709;1260;67846;-70
2023/03/23 07:48:24;;;;;;;29.20;23.40;;;;;;;12.26;72.69;99731.49;105335;1260;74551;-70
2023/03/23 07:50:52;;;;;;;28.90;25.20;;;;;;;12.33;72.11;99728.58;105528;1254;62581;-69
2023/03/23 07:53:22;;;;;;;30.70;24.70;;;;;;;12.40;71.72;99724.95;105810;1255;61166;-70
2023/03/23 07:55:55;;;;;;;33.30;25.60;;;;;;;12.46;71.71;99725.42;105727;1254;72835;-70
2023/03/23 07:58:58;;;;;;;31.90;24.20;;;;;;;12.55;70.55;99729.61;105751;1254;68929;-72
2023/03/23 08:01:25;;;;;;;28.00;24.10;;;;;;;12.62;69.83;99725.39;105827;1254;74241;-68
2023/03/23 08:04:15;;;;;;;26.00;22.30;;;;;;;12.71;69.53;99727.27;105965;1254;60744;-70
2023/03/23 08:07:06;;;;;;;25.80;22.90;;;;;;;12.78;68.26;99722.13;105721;1254;61216;-69
2023/03/23 08:09:58;;;;;;;28.50;23.50;;;;;;;12.85;68.21;99724.69;105364;1260;75354;-71
2023/03/23 08:13:00;;;;;;;34.60;25.90;;;;;;;12.93;67.65;99719.76;105827;1255;68710;-71
2023/03/23 08:15:48;;;;;;;33.50;26.50;;;;;;;13.02;67.69;99717.80;105325;1260;72290;-72
2023/03/23 08:18:25;;;;;;;31.90;25.00;;;;;;;13.14;67.25;99718.98;105747;1261;60488;-73
2023/03/23 08:21:08;;;;;;;29.20;24.70;;;;;;;13.23;67.16;99718.52;105819;1259;60446;-72
2023/03/23 08:23:54;;;;;;;31.90;23.60;;;;;;;13.36;66.27;99720.99;105941;1258;74500;-70
2023/03/23 08:26:49;;;;;;;29.10;25.10;;;;;;;13.45;65.91;99727.77;105524;1261;67449;-70
2023/03/23 08:29:52;;;;;;;38.00;32.30;;;;;;;13.57;65.31;99723.67;105326;1266;72530;-69
2023/03/23 08:32:44;;;;;;;32.70;28.20;;;;;;;13.64;64.87;99723.90;105231;1254;61054;-72
2023/03/23 08:35:37;;;;;;;33.50;28.40;;;;;;;13.69;64.21;99728.06;105742;1254;60539;-73
2023/03/23 08:38:21;;;;;;;;;;;;;;;13.72;64.16;99725.04;105854;1258;75102;-73
2023/03/23 08:41:05;;;;;;;38.70;28.80;;;;;;;13.76;63.77;99719.91;106008;1257;68814;-72
2023/03/23 08:43:46;;;;;;;30.40;27.20;;;;;;;13.78;63.52;99716.28;105901;1257;72484;-70
2023/03/23 08:46:32;;;;;;;37.30;31.60;;;;;;;13.83;63.55;99712.13;105537;1254;60437;-70
2023/03/23 08:49:14;;;;;;;32.00;25.40;;;;;;;13.91;63.46;99710.54;105752;1260;62092;-72
2023/03/23 08:51:53;;;;;;;36.10;29.40;;;;;;;13.96;62.72;99712.02;105741;1260;73513;-73
2023/03/23 08:54:47;;;;;;;34.00;28.10;;;;;;;14.01;62.59;99709.36;105816;1254;68660;-70
2023/03/23 08:57:29;;;;;;;30.30;27.00;;;;;;;14.06;62.33;99704.92;105512;1254;72673;-72
2023/03/23 09:00:17;;;;;;;43.50;28.60;;;;;;;14.11;62.23;99699.17;105533;1257;61302;-76
2023/03/23 09:03:05;;;;;;;37.40;27.30;;;;;;;14.19;62.22;99700.41;105658;1254;61645;-73
2023/03/23 09:05:45;;;;;;;40.50;26.10;;;;;;;14.29;61.48;99699.63;105583;1257;73074;-75
2023/03/23 09:08:28;;;;;;;33.70;27.50;;;;;;;14.37;61.26;99696.19;105564;1255;68409;-71
2023/03/23 09:10:59;;;;;;;35.00;27.40;;;;;;;14.46;60.85;99692.86;105784;1261;72489;-73
2023/03/23 09:13:27;;;;;;;28.60;23.30;;;;;;;14.50;60.40;99695.40;105840;1255;61033;-74
2023/03/23 09:15:55;;;;;;;29.80;23.90;;;;;;;14.55;60.31;99692.52;105822;1260;61005;-75
2023/03/23 09:18:22;;;;;;;26.00;22.70;;;;;;;14.61;60.23;99690.48;105630;1261;73980;-71
2023/03/23 09:20:50;;;;;;;27.30;24.30;;;;;;;14.67;59.74;99690.80;105788;1257;70672;-70
2023/03/23 09:23:20;;;;;;;26.30;23.00;;;;;;;14.71;59.31;99691.38;105660;1254;72582;-74
2023/03/23 09:25:49;;;;;;;27.70;24.70;;;;;;;14.72;58.96;99684.86;105547;1263;61282;-71
2023/03/23 09:28:16;;;;;;;29.40;25.00;;;;;;;14.75;59.18;99688.96;105601;1254;60590;-73
2023/03/23 09:30:45;;;;;;;27.00;22.90;;;;;;;14.82;58.83;99686.67;105540;1264;75526;-73
2023/03/23 09:33:13;;;;;;;29.40;24.40;;;;;;;14.86;58.56;99680.96;105702;1260;69435;-72
2023/03/23 09:35:41;;;;;;;28.40;25.40;;;;;;;14.91;58.28;99677.47;105683;1257;72697;-71
2023/03/23 09:38:12;;;;;;;30.90;24.50;;;;;;;14.93;58.08;99677.89;105435;1254;61195;-68
2023/03/23 09:41:07;;;;;;;31.00;26.30;;;;;;;14.94;58.22;99668.63;105633;1254;61025;-69
2023/03/23 09:43:45;;;;;;;28.40;22.30;;;;;;;14.96;58.32;99671.27;105740;1254;73898;-74
2023/03/23 09:46:34;;;;;;;26.70;20.30;;;;;;;14.99;57.90;99670.44;105781;1260;66563;-71
2023/03/23 09:49:45;;;;;;;31.70;24.20;;;;;;;15.00;57.43;99666.76;105881;1254;74169;-69
2023/03/23 09:52:15;;;;;;;28.90;23.30;;;;;;;15.07;57.61;99670.52;105255;1264;61098;-73
2023/03/23 09:54:50;;;;;;;28.80;24.60;;;;;;;15.12;57.40;99662.94;105467;1268;61398;-74
2023/03/23 09:57:20;;;;;;;30.10;23.40;;;;;;;15.16;57.42;99660.59;105790;1261;75738;-69
2023/03/23 09:59:58;;;;;;;30.80;23.10;;;;;;;15.19;57.10;99656.84;105852;1260;67590;-74
2023/03/23 10:02:55;;;;;;;25.40;22.50;;;;;;;15.18;57.35;99655.77;105783;1260;74474;-73
2023/03/23 10:05:33;;;;;;;26.20;21.90;;;;;;;15.21;57.48;99656.98;105538;1261;60677;-74
2023/03/23 10:08:01;;;;;;;24.90;20.50;;;;;;;15.24;57.33;99655.35;105759;1255;60859;-72
2023/03/23 10:10:42;;;;;;;25.80;22.40;;;;;;;15.24;57.07;99649.65;105882;1258;75339;-72
2023/03/23 10:13:20;;;;;;;26.40;23.10;;;;;;;15.22;57.10;99646.68;105919;1254;67419;-72
2023/03/23 10:15:48;;;;;;;31.50;23.20;;;;;;;15.21;57.52;99644.29;105816;1260;74546;-71
2023/03/23 10:18:36;;;;;;;29.00;25.10;;;;;;;15.21;57.37;99638.98;105381;1254;60852;-73
2023/03/23 10:21:07;;;;;;;28.20;24.80;;;;;;;15.17;57.48;99636.43;105731;1254;60558;-74
2023/03/23 10:23:55;;;;;;;24.50;20.30;;;;;;;15.15;57.92;99633.98;105479;1254;73380;-74
2023/03/23 10:26:50;;;;;;;25.60;22.60;;;;;;;15.17;57.81;99629.27;105739;1254;68115;-73
2023/03/23 10:29:24;;;;;;;25.20;20.90;;;;;;;15.21;57.61;99626.63;105838;1258;72973;-72
2023/03/23 10:32:11;;;;;;;27.40;22.00;;;;;;;15.22;57.53;99627.66;105919;1254;61238;-71
2023/03/23 10:34:43;;;;;;;28.10;22.70;;;;;;;15.27;57.55;99627.09;105815;1254;60565;-70
2023/03/23 10:37:18;;;;;;;25.30;20.60;;;;;;;15.33;57.35;99627.91;105471;1257;75192;-70
2023/03/23 10:39:52;;;;;;;27.60;23.20;;;;;;;15.37;57.49;99620.77;105458;1254;68740;-70
2023/03/23 10:42:24;;;;;;;25.50;22.30;;;;;;;15.43;57.39;99620.56;105518;1254;73952;-74
2023/03/23 10:44:52;;;;;;;26.40;23.30;;;;;;;15.49;57.23;99625.73;105816;1254;60508;-72
2023/03/23 10:47:20;;;;;;;29.20;23.10;;;;;;;15.56;57.05;99622.83;105864;1254;61256;-70
2023/03/23 10:49:55;;;;;;;24.00;20.40;;;;;;;15.61;56.91;99619.36;105737;1255;75118;-71
2023/03/23 10:52:37;;;;;;;29.30;24.60;;;;;;;15.66;56.71;99613.41;105395;1254;68828;-72
2023/03/23 10:55:10;;;;;;;25.80;21.10;;;;;;;15.70;56.59;99608.21;105647;1255;73818;-73
2023/03/23 10:57:39;;;;;;;27.60;23.30;;;;;;;15.74;56.64;99602.81;105695;1258;61860;-73
2023/03/23 11:00:28;;;;;;;23.60;21.10;;;;;;;15.79;56.46;99596.54;105640;1263;62143;-76
2023/03/23 11:03:05;;;;;;;26.50;22.80;;;;;;;15.90;56.48;99599.29;105776;1261;74197;-75
2023/03/23 11:05:37;;;;;;;27.20;23.90;;;;;;;16.00;55.88;99601.45;105820;1259;67761;-72
2023/03/23 11:08:12;;;;;;;25.00;22.20;;;;;;;16.09;55.55;99596.38;105829;1254;71839;-71
2023/03/23 11:10:42;;;;;;;21.90;19.20;;;;;;;16.17;55.41;99592.17;105727;1260;61150;-73
2023/03/23 11:13:13;;;;;;;27.20;21.30;;;;;;;16.25;54.56;99592.94;105906;1260;60661;-72
2023/03/23 11:15:47;;;;;;;21.70;19.40;;;;;;;16.23;54.30;99583.14;105585;1254;75738;-71
2023/03/23 11:18:42;;;;;;;28.00;21.30;;;;;;;16.23;54.50;99584.27;105610;1254;69588;-73
2023/03/23 11:21:13;;;;;;;24.20;21.30;;;;;;;16.30;54.40;99576.49;105778;1259;73586;-72
2023/03/23 11:23:42;;;;;;;29.20;20.90;;;;;;;16.37;53.77;99569.13;105798;1254;61285;-76
2023/03/23 11:26:16;;;;;;;24.30;20.00;;;;;;;16.41;53.99;99565.98;106159;1260;59437;-77
2023/03/23 11:28:56;;;;;;;28.30;24.30;;;;;;;16.52;53.97;99567.19;105762;1254;75304;-73
2023/03/23 11:31:38;;;;;;;23.30;19.90;;;;;;;16.65;53.99;99569.55;105824;1257;67069;-78
2023/03/23 11:34:18;;;;;;;18.90;16.90;;;;;;;16.77;51.86;99572.44;105861;1254;74609;-79
2023/03/23 11:36:59;;;;;;;23.60;17.90;;;;;;;16.82;51.22;99561.97;105657;1262;60467;-77
2023/03/23 11:39:27;;;;;;;19.30;15.90;;;;;;;16.87;50.16;99575.39;105685;1260;60959;-78
2023/03/23 11:42:01;;;;;;;23.60;17.10;;;;;;;16.88;49.48;99570.80;105422;1255;73963;-80
2023/03/23 11:44:41;;;;;;;19.00;17.10;;;;;;;16.83;49.52;99554.52;105937;1254;69588;-75
2023/03/23 11:47:48;;;;;;;26.30;16.90;;;;;;;16.79;49.56;99552.40;105960;1254;73510;-74
2023/03/23 11:50:18;;;;;;;22.40;16.70;;;;;;;16.77;49.40;99553.42;105525;1254;60627;-82
2023/03/23 11:52:49;;;;;;;20.30;17.30;;;;;;;16.76;49.47;99542.17;105665;1257;61987;-80